sensor_id;sensor_type;location;lat;lon;timestamp;temperature;humidity
72650;SHT31;61467;50.674;4.618;2023-04-08T00:00:50;9.85;70.49
72650;SHT31;61467;50.674;4.618;2023-04-08T00:03:17;9.97;70.11
72650;SHT31;61467;50.674;4.618;2023-04-08T00:05:43;9.92;70.11
72650;SHT31;61467;50.674;4.618;2023-04-08T00:08:12;10.02;69.99
72650;SHT31;61467;50.674;4.618;2023-04-08T00:10:39;9.97;70.26
72650;SHT31;61467;50.674;4.618;2023-04-08T00:13:05;9.96;70.45
72650;SHT31;61467;50.674;4.618;2023-04-08T00:15:32;9.95;70.31
72650;SHT31;61467;50.674;4.618;2023-04-08T00:17:59;9.92;70.31
72650;SHT31;61467;50.674;4.618;2023-04-08T00:20:26;9.86;70.54
72650;SHT31;61467;50.674;4.618;2023-04-08T00:22:53;9.72;70.82
72650;SHT31;61467;50.674;4.618;2023-04-08T00:25:21;9.62;71.33
72650;SHT31;61467;50.674;4.618;2023-04-08T00:27:48;9.56;71.76
72650;SHT31;61467;50.674;4.618;2023-04-08T00:30:15;9.39;72.33
72650;SHT31;61467;50.674;4.618;2023-04-08T00:32:42;9.38;72.25
72650;SHT31;61467;50.674;4.618;2023-04-08T00:35:09;9.30;72.64
72650;SHT31;61467;50.674;4.618;2023-04-08T00:37:38;9.35;73.06
72650;SHT31;61467;50.674;4.618;2023-04-08T00:40:06;9.27;73.24
72650;SHT31;61467;50.674;4.618;2023-04-08T00:42:36;9.34;73.02
72650;SHT31;61467;50.674;4.618;2023-04-08T00:45:04;9.48;72.86
72650;SHT31;61467;50.674;4.618;2023-04-08T00:47:31;9.56;72.12
72650;SHT31;61467;50.674;4.618;2023-04-08T00:49:58;9.49;72.44
72650;SHT31;61467;50.674;4.618;2023-04-08T00:52:25;9.41;72.83
72650;SHT31;61467;50.674;4.618;2023-04-08T00:54:52;9.46;72.72
72650;SHT31;61467;50.674;4.618;2023-04-08T00:57:19;9.58;72.38
72650;SHT31;61467;50.674;4.618;2023-04-08T00:59:47;9.58;72.27
72650;SHT31;61467;50.674;4.618;2023-04-08T01:02:30;9.69;71.99
72650;SHT31;61467;50.674;4.618;2023-04-08T01:05:02;9.72;71.96
72650;SHT31;61467;50.674;4.618;2023-04-08T01:07:31;9.81;71.60
72650;SHT31;61467;50.674;4.618;2023-04-08T01:10:02;9.69;71.94
72650;SHT31;61467;50.674;4.618;2023-04-08T01:12:31;9.65;72.42
72650;SHT31;61467;50.674;4.618;2023-04-08T01:15:04;9.72;72.55
72650;SHT31;61467;50.674;4.618;2023-04-08T01:17:31;9.68;72.45
72650;SHT31;61467;50.674;4.618;2023-04-08T01:20:00;9.79;72.17
72650;SHT31;61467;50.674;4.618;2023-04-08T01:22:36;9.85;72.00
72650;SHT31;61467;50.674;4.618;2023-04-08T01:25:09;9.87;71.84
72650;SHT31;61467;50.674;4.618;2023-04-08T01:27:39;9.90;72.00
72650;SHT31;61467;50.674;4.618;2023-04-08T01:30:08;9.85;72.27
72650;SHT31;61467;50.674;4.618;2023-04-08T01:32:35;9.82;71.95
72650;SHT31;61467;50.674;4.618;2023-04-08T01:35:04;9.83;72.25
72650;SHT31;61467;50.674;4.618;2023-04-08T01:37:32;9.86;72.07
72650;SHT31;61467;50.674;4.618;2023-04-08T01:40:00;9.81;72.29
72650;SHT31;61467;50.674;4.618;2023-04-08T01:42:28;9.83;72.27
72650;SHT31;61467;50.674;4.618;2023-04-08T01:44:58;9.82;72.42
72650;SHT31;61467;50.674;4.618;2023-04-08T01:47:25;9.85;72.54
72650;SHT31;61467;50.674;4.618;2023-04-08T01:49:54;9.85;72.57
72650;SHT31;61467;50.674;4.618;2023-04-08T01:52:22;9.86;72.51
72650;SHT31;61467;50.674;4.618;2023-04-08T01:54:49;9.79;72.46
72650;SHT31;61467;50.674;4.618;2023-04-08T01:57:26;9.68;72.85
72650;SHT31;61467;50.674;4.618;2023-04-08T02:00:00;9.81;72.68
72650;SHT31;61467;50.674;4.618;2023-04-08T02:02:29;9.78;72.78
72650;SHT31;61467;50.674;4.618;2023-04-08T02:04:57;9.75;72.84
72650;SHT31;61467;50.674;4.618;2023-04-08T02:07:24;9.83;72.82
72650;SHT31;61467;50.674;4.618;2023-04-08T02:09:51;9.86;72.75
72650;SHT31;61467;50.674;4.618;2023-04-08T02:12:18;9.76;72.94
72650;SHT31;61467;50.674;4.618;2023-04-08T02:14:45;9.73;73.06
72650;SHT31;61467;50.674;4.618;2023-04-08T02:17:18;9.85;72.93
72650;SHT31;61467;50.674;4.618;2023-04-08T02:19:56;9.86;72.90
72650;SHT31;61467;50.674;4.618;2023-04-08T02:22:32;9.85;72.89
72650;SHT31;61467;50.674;4.618;2023-04-08T02:25:03;9.85;73.06
72650;SHT31;61467;50.674;4.618;2023-04-08T02:27:33;9.81;73.21
72650;SHT31;61467;50.674;4.618;2023-04-08T02:30:02;9.79;73.08
72650;SHT31;61467;50.674;4.618;2023-04-08T02:32:32;9.76;73.22
72650;SHT31;61467;50.674;4.618;2023-04-08T02:35:00;9.68;73.54
72650;SHT31;61467;50.674;4.618;2023-04-08T02:37:31;9.71;73.61
72650;SHT31;61467;50.674;4.618;2023-04-08T02:39:59;9.72;73.41
72650;SHT31;61467;50.674;4.618;2023-04-08T02:42:26;9.79;73.35
72650;SHT31;61467;50.674;4.618;2023-04-08T02:44:52;9.73;73.42
72650;SHT31;61467;50.674;4.618;2023-04-08T02:47:19;9.75;73.59
72650;SHT31;61467;50.674;4.618;2023-04-08T02:49:48;9.76;73.48
72650;SHT31;61467;50.674;4.618;2023-04-08T02:52:18;9.79;73.39
72650;SHT31;61467;50.674;4.618;2023-04-08T02:54:45;9.76;73.49
72650;SHT31;61467;50.674;4.618;2023-04-08T02:57:11;9.79;73.32
72650;SHT31;61467;50.674;4.618;2023-04-08T02:59:38;9.79;73.43
72650;SHT31;61467;50.674;4.618;2023-04-08T03:02:05;9.82;73.44
72650;SHT31;61467;50.674;4.618;2023-04-08T03:04:32;9.78;73.48
72650;SHT31;61467;50.674;4.618;2023-04-08T03:07:01;9.71;73.39
72650;SHT31;61467;50.674;4.618;2023-04-08T03:09:27;9.81;73.45
72650;SHT31;61467;50.674;4.618;2023-04-08T03:11:54;9.72;73.67
72650;SHT31;61467;50.674;4.618;2023-04-08T03:14:21;9.69;73.77
72650;SHT31;61467;50.674;4.618;2023-04-08T03:16:48;9.75;73.83
72650;SHT31;61467;50.674;4.618;2023-04-08T03:19:15;9.79;73.68
72650;SHT31;61467;50.674;4.618;2023-04-08T03:21:44;9.81;73.82
72650;SHT31;61467;50.674;4.618;2023-04-08T03:24:13;9.82;73.57
72650;SHT31;61467;50.674;4.618;2023-04-08T03:26:40;9.85;73.50
72650;SHT31;61467;50.674;4.618;2023-04-08T03:29:07;9.86;73.47
72650;SHT31;61467;50.674;4.618;2023-04-08T03:31:34;9.87;73.58
72650;SHT31;61467;50.674;4.618;2023-04-08T03:34:01;9.82;73.51
72650;SHT31;61467;50.674;4.618;2023-04-08T03:36:28;9.79;73.55
72650;SHT31;61467;50.674;4.618;2023-04-08T03:38:55;9.73;73.85
72650;SHT31;61467;50.674;4.618;2023-04-08T03:41:24;9.73;74.09
72650;SHT31;61467;50.674;4.618;2023-04-08T03:43:51;9.56;74.07
72650;SHT31;61467;50.674;4.618;2023-04-08T03:46:17;9.55;74.21
72650;SHT31;61467;50.674;4.618;2023-04-08T03:48:44;9.41;74.66
72650;SHT31;61467;50.674;4.618;2023-04-08T03:51:11;9.58;74.47
72650;SHT31;61467;50.674;4.618;2023-04-08T03:53:38;9.58;74.34
72650;SHT31;61467;50.674;4.618;2023-04-08T03:56:05;9.62;74.23
72650;SHT31;61467;50.674;4.618;2023-04-08T03:58:34;9.65;74.31
72650;SHT31;61467;50.674;4.618;2023-04-08T04:01:00;9.58;74.28
72650;SHT31;61467;50.674;4.618;2023-04-08T04:03:27;9.69;74.27
72650;SHT31;61467;50.674;4.618;2023-04-08T04:05:55;9.61;74.47
72650;SHT31;61467;50.674;4.618;2023-04-08T04:08:22;9.56;74.38
72650;SHT31;61467;50.674;4.618;2023-04-08T04:10:49;9.65;74.32
72650;SHT31;61467;50.674;4.618;2023-04-08T04:13:17;9.58;74.33
72650;SHT31;61467;50.674;4.618;2023-04-08T04:15:45;9.38;75.00
72650;SHT31;61467;50.674;4.618;2023-04-08T04:18:12;9.46;74.85
72650;SHT31;61467;50.674;4.618;2023-04-08T04:20:39;9.51;74.67
72650;SHT31;61467;50.674;4.618;2023-04-08T04:23:06;9.46;74.67
72650;SHT31;61467;50.674;4.618;2023-04-08T04:25:33;9.52;74.56
72650;SHT31;61467;50.674;4.618;2023-04-08T04:28:00;9.68;74.53
72650;SHT31;61467;50.674;4.618;2023-04-08T04:30:28;9.66;74.40
72650;SHT31;61467;50.674;4.618;2023-04-08T04:32:57;9.65;74.20
72650;SHT31;61467;50.674;4.618;2023-04-08T04:35:24;9.65;74.41
72650;SHT31;61467;50.674;4.618;2023-04-08T04:37:51;9.62;74.53
72650;SHT31;61467;50.674;4.618;2023-04-08T04:40:18;9.66;74.36
72650;SHT31;61467;50.674;4.618;2023-04-08T04:42:45;9.56;74.44
72650;SHT31;61467;50.674;4.618;2023-04-08T04:45:12;9.66;74.51
72650;SHT31;61467;50.674;4.618;2023-04-08T04:47:39;9.71;74.43
72650;SHT31;61467;50.674;4.618;2023-04-08T04:50:08;9.59;74.29
72650;SHT31;61467;50.674;4.618;2023-04-08T04:52:35;9.42;74.90
72650;SHT31;61467;50.674;4.618;2023-04-08T04:55:02;9.31;75.68
72650;SHT31;61467;50.674;4.618;2023-04-08T04:57:29;9.41;75.50
72650;SHT31;61467;50.674;4.618;2023-04-08T04:59:55;9.25;75.84
72650;SHT31;61467;50.674;4.618;2023-04-08T05:02:22;9.20;75.92
72650;SHT31;61467;50.674;4.618;2023-04-08T05:04:49;9.08;76.43
72650;SHT31;61467;50.674;4.618;2023-04-08T05:07:19;9.11;76.62
72650;SHT31;61467;50.674;4.618;2023-04-08T05:09:46;9.14;76.47
72650;SHT31;61467;50.674;4.618;2023-04-08T05:12:13;9.44;75.56
72650;SHT31;61467;50.674;4.618;2023-04-08T05:14:39;9.52;75.39
72650;SHT31;61467;50.674;4.618;2023-04-08T05:17:06;9.51;75.20
72650;SHT31;61467;50.674;4.618;2023-04-08T05:19:33;9.54;75.29
72650;SHT31;61467;50.674;4.618;2023-04-08T05:22:00;9.56;75.10
72650;SHT31;61467;50.674;4.618;2023-04-08T05:24:28;9.61;74.98
72650;SHT31;61467;50.674;4.618;2023-04-08T05:26:55;9.61;75.03
72650;SHT31;61467;50.674;4.618;2023-04-08T05:29:22;9.68;74.93
72650;SHT31;61467;50.674;4.618;2023-04-08T05:31:49;9.48;75.44
72650;SHT31;61467;50.674;4.618;2023-04-08T05:34:16;9.21;76.18
72650;SHT31;61467;50.674;4.618;2023-04-08T05:36:47;9.34;76.07
72650;SHT31;61467;50.674;4.618;2023-04-08T05:39:16;9.42;75.98
72650;SHT31;61467;50.674;4.618;2023-04-08T05:41:44;9.52;75.87
72650;SHT31;61467;50.674;4.618;2023-04-08T05:44:12;9.55;75.67
72650;SHT31;61467;50.674;4.618;2023-04-08T05:46:39;9.55;75.74
72650;SHT31;61467;50.674;4.618;2023-04-08T05:49:05;9.48;76.63
72650;SHT31;61467;50.674;4.618;2023-04-08T05:51:32;9.52;76.33
72650;SHT31;61467;50.674;4.618;2023-04-08T05:53:59;9.63;76.03
72650;SHT31;61467;50.674;4.618;2023-04-08T05:56:26;9.54;76.32
72650;SHT31;61467;50.674;4.618;2023-04-08T05:58:54;9.35;77.75
72650;SHT31;61467;50.674;4.618;2023-04-08T06:01:21;9.38;77.48
72650;SHT31;61467;50.674;4.618;2023-04-08T06:03:48;9.49;76.94
72650;SHT31;61467;50.674;4.618;2023-04-08T06:06:17;9.51;76.57
72650;SHT31;61467;50.674;4.618;2023-04-08T06:08:44;9.48;77.43
72650;SHT31;61467;50.674;4.618;2023-04-08T06:11:11;9.08;78.16
72650;SHT31;61467;50.674;4.618;2023-04-08T06:13:38;9.31;78.11
72650;SHT31;61467;50.674;4.618;2023-04-08T06:16:12;9.41;77.73
72650;SHT31;61467;50.674;4.618;2023-04-08T06:18:39;9.27;78.23
72650;SHT31;61467;50.674;4.618;2023-04-08T06:21:05;9.36;78.32
72650;SHT31;61467;50.674;4.618;2023-04-08T06:23:32;9.36;78.09
72650;SHT31;61467;50.674;4.618;2023-04-08T06:25:59;9.45;77.64
72650;SHT31;61467;50.674;4.618;2023-04-08T06:28:28;9.51;77.66
72650;SHT31;61467;50.674;4.618;2023-04-08T06:30:55;9.66;77.00
72650;SHT31;61467;50.674;4.618;2023-04-08T06:33:23;9.55;77.47
72650;SHT31;61467;50.674;4.618;2023-04-08T06:35:50;9.59;77.35
72650;SHT31;61467;50.674;4.618;2023-04-08T06:38:17;9.62;77.23
72650;SHT31;61467;50.674;4.618;2023-04-08T06:40:44;9.45;77.77
72650;SHT31;61467;50.674;4.618;2023-04-08T06:43:10;9.25;78.60
72650;SHT31;61467;50.674;4.618;2023-04-08T06:45:37;8.97;79.59
72650;SHT31;61467;50.674;4.618;2023-04-08T06:48:04;9.04;79.81
72650;SHT31;61467;50.674;4.618;2023-04-08T06:50:34;8.94;79.95
72650;SHT31;61467;50.674;4.618;2023-04-08T06:53:01;9.15;79.74
72650;SHT31;61467;50.674;4.618;2023-04-08T06:55:28;9.41;79.38
72650;SHT31;61467;50.674;4.618;2023-04-08T06:57:55;9.65;78.21
72650;SHT31;61467;50.674;4.618;2023-04-08T07:00:22;9.78;77.50
72650;SHT31;61467;50.674;4.618;2023-04-08T07:02:49;9.87;76.97
72650;SHT31;61467;50.674;4.618;2023-04-08T07:05:21;9.97;76.65
72650;SHT31;61467;50.674;4.618;2023-04-08T07:07:49;9.99;76.63
72650;SHT31;61467;50.674;4.618;2023-04-08T07:10:16;9.97;76.62
72650;SHT31;61467;50.674;4.618;2023-04-08T07:12:43;9.82;77.47
72650;SHT31;61467;50.674;4.618;2023-04-08T07:15:10;9.90;77.06
72650;SHT31;61467;50.674;4.618;2023-04-08T07:17:37;9.62;77.83
72650;SHT31;61467;50.674;4.618;2023-04-08T07:20:05;9.72;77.70
72650;SHT31;61467;50.674;4.618;2023-04-08T07:22:32;9.87;77.40
72650;SHT31;61467;50.674;4.618;2023-04-08T07:25:00;9.65;77.97
72650;SHT31;61467;50.674;4.618;2023-04-08T07:27:27;9.76;78.14
72650;SHT31;61467;50.674;4.618;2023-04-08T07:29:54;10.12;76.91
72650;SHT31;61467;50.674;4.618;2023-04-08T07:32:21;10.16;77.13
72650;SHT31;61467;50.674;4.618;2023-04-08T07:34:48;10.14;76.59
72650;SHT31;61467;50.674;4.618;2023-04-08T07:37:17;10.04;76.62
72650;SHT31;61467;50.674;4.618;2023-04-08T07:39:43;10.20;77.22
72650;SHT31;61467;50.674;4.618;2023-04-08T07:42:12;10.21;76.83
72650;SHT31;61467;50.674;4.618;2023-04-08T07:44:38;10.21;76.51
72650;SHT31;61467;50.674;4.618;2023-04-08T07:47:05;10.27;76.31
72650;SHT31;61467;50.674;4.618;2023-04-08T07:49:32;10.41;76.09
72650;SHT31;61467;50.674;4.618;2023-04-08T07:51:59;10.33;75.32
72650;SHT31;61467;50.674;4.618;2023-04-08T07:54:26;10.17;76.39
72650;SHT31;61467;50.674;4.618;2023-04-08T07:56:53;10.20;76.33
72650;SHT31;61467;50.674;4.618;2023-04-08T07:59:21;10.06;76.38
72650;SHT31;61467;50.674;4.618;2023-04-08T08:01:48;10.18;76.50
72650;SHT31;61467;50.674;4.618;2023-04-08T08:04:14;10.37;76.22
72650;SHT31;61467;50.674;4.618;2023-04-08T08:06:41;10.45;75.58
72650;SHT31;61467;50.674;4.618;2023-04-08T08:09:08;10.34;74.86
72650;SHT31;61467;50.674;4.618;2023-04-08T08:11:36;10.21;75.74
72650;SHT31;61467;50.674;4.618;2023-04-08T08:14:03;10.20;75.77
72650;SHT31;61467;50.674;4.618;2023-04-08T08:16:31;10.40;75.55
72650;SHT31;61467;50.674;4.618;2023-04-08T08:18:59;10.17;75.12
72650;SHT31;61467;50.674;4.618;2023-04-08T08:21:25;10.21;75.15
72650;SHT31;61467;50.674;4.618;2023-04-08T08:23:52;10.10;75.45
72650;SHT31;61467;50.674;4.618;2023-04-08T08:26:21;10.10;75.64
72650;SHT31;61467;50.674;4.618;2023-04-08T08:28:48;10.17;75.35
72650;SHT31;61467;50.674;4.618;2023-04-08T08:31:15;10.17;75.11
72650;SHT31;61467;50.674;4.618;2023-04-08T08:33:43;10.41;74.74
72650;SHT31;61467;50.674;4.618;2023-04-08T08:36:10;10.51;74.28
72650;SHT31;61467;50.674;4.618;2023-04-08T08:38:37;10.63;74.01
72650;SHT31;61467;50.674;4.618;2023-04-08T08:41:04;10.55;73.41
72650;SHT31;61467;50.674;4.618;2023-04-08T08:43:31;10.32;73.12
72650;SHT31;61467;50.674;4.618;2023-04-08T08:45:59;10.30;73.02
72650;SHT31;61467;50.674;4.618;2023-04-08T08:48:26;10.32;72.87
72650;SHT31;61467;50.674;4.618;2023-04-08T08:50:54;10.37;72.49
72650;SHT31;61467;50.674;4.618;2023-04-08T08:53:27;10.48;72.79
72650;SHT31;61467;50.674;4.618;2023-04-08T08:55:55;10.50;71.43
72650;SHT31;61467;50.674;4.618;2023-04-08T08:58:25;10.67;70.88
72650;SHT31;61467;50.674;4.618;2023-04-08T09:00:52;10.81;70.95
72650;SHT31;61467;50.674;4.618;2023-04-08T09:03:23;10.75;71.18
72650;SHT31;61467;50.674;4.618;2023-04-08T09:05:54;10.99;70.87
72650;SHT31;61467;50.674;4.618;2023-04-08T09:08:25;10.92;70.27
72650;SHT31;61467;50.674;4.618;2023-04-08T09:10:52;11.05;70.44
72650;SHT31;61467;50.674;4.618;2023-04-08T09:13:21;11.06;70.22
72650;SHT31;61467;50.674;4.618;2023-04-08T09:16:01;11.12;69.72
72650;SHT31;61467;50.674;4.618;2023-04-08T09:18:29;11.11;68.69
72650;SHT31;61467;50.674;4.618;2023-04-08T09:20:59;11.20;68.67
72650;SHT31;61467;50.674;4.618;2023-04-08T09:23:43;11.25;67.70
72650;SHT31;61467;50.674;4.618;2023-04-08T09:26:11;11.25;67.64
72650;SHT31;61467;50.674;4.618;2023-04-08T09:28:39;11.32;67.56
72650;SHT31;61467;50.674;4.618;2023-04-08T09:31:22;11.32;67.37
72650;SHT31;61467;50.674;4.618;2023-04-08T09:33:52;11.39;67.23
72650;SHT31;61467;50.674;4.618;2023-04-08T09:36:20;11.59;71.19
72650;SHT31;61467;50.674;4.618;2023-04-08T09:38:47;11.64;67.28
72650;SHT31;61467;50.674;4.618;2023-04-08T09:41:16;11.69;66.96
72650;SHT31;61467;50.674;4.618;2023-04-08T09:43:44;11.64;65.90
72650;SHT31;61467;50.674;4.618;2023-04-08T09:46:15;11.43;65.61
72650;SHT31;61467;50.674;4.618;2023-04-08T09:48:49;11.44;66.24
72650;SHT31;61467;50.674;4.618;2023-04-08T09:51:22;11.43;66.47
72650;SHT31;61467;50.674;4.618;2023-04-08T09:53:56;11.29;67.74
72650;SHT31;61467;50.674;4.618;2023-04-08T09:56:26;11.29;69.14
72650;SHT31;61467;50.674;4.618;2023-04-08T09:58:58;11.26;69.61
72650;SHT31;61467;50.674;4.618;2023-04-08T10:01:34;11.54;69.05
72650;SHT31;61467;50.674;4.618;2023-04-08T10:04:04;11.69;68.33
72650;SHT31;61467;50.674;4.618;2023-04-08T10:06:35;11.54;67.34
72650;SHT31;61467;50.674;4.618;2023-04-08T10:09:04;11.70;67.70
72650;SHT31;61467;50.674;4.618;2023-04-08T10:11:32;11.90;67.72
72650;SHT31;61467;50.674;4.618;2023-04-08T10:13:59;12.02;66.14
72650;SHT31;61467;50.674;4.618;2023-04-08T10:16:27;12.22;65.03
72650;SHT31;61467;50.674;4.618;2023-04-08T10:18:54;12.21;64.43
72650;SHT31;61467;50.674;4.618;2023-04-08T10:21:32;12.35;65.03
72650;SHT31;61467;50.674;4.618;2023-04-08T10:24:01;12.42;64.59
72650;SHT31;61467;50.674;4.618;2023-04-08T10:26:33;12.48;63.99
72650;SHT31;61467;50.674;4.618;2023-04-08T10:32:28;11.95;63.21
72650;SHT31;61467;50.674;4.618;2023-04-08T10:34:55;11.54;64.39
72650;SHT31;61467;50.674;4.618;2023-04-08T10:37:22;11.87;64.83
72650;SHT31;61467;50.674;4.618;2023-04-08T10:39:53;11.78;64.11
72650;SHT31;61467;50.674;4.618;2023-04-08T10:42:26;11.94;64.58
72650;SHT31;61467;50.674;4.618;2023-04-08T10:44:53;12.21;64.00
72650;SHT31;61467;50.674;4.618;2023-04-08T10:47:25;12.29;63.13
72650;SHT31;61467;50.674;4.618;2023-04-08T10:49:52;12.42;63.58
72650;SHT31;61467;50.674;4.618;2023-04-08T10:52:20;12.60;63.03
72650;SHT31;61467;50.674;4.618;2023-04-08T10:54:47;12.64;63.16
72650;SHT31;61467;50.674;4.618;2023-04-08T10:57:23;12.79;61.68
72650;SHT31;61467;50.674;4.618;2023-04-08T10:59:50;12.77;60.74
72650;SHT31;61467;50.674;4.618;2023-04-08T11:02:17;12.75;61.57
72650;SHT31;61467;50.674;4.618;2023-04-08T11:04:43;12.77;60.96
72650;SHT31;61467;50.674;4.618;2023-04-08T11:07:12;12.79;60.81
72650;SHT31;61467;50.674;4.618;2023-04-08T11:09:39;12.66;60.93
72650;SHT31;61467;50.674;4.618;2023-04-08T11:12:06;13.07;60.57
72650;SHT31;61467;50.674;4.618;2023-04-08T11:14:35;12.97;59.83
72650;SHT31;61467;50.674;4.618;2023-04-08T11:17:02;13.04;60.06
72650;SHT31;61467;50.674;4.618;2023-04-08T11:19:30;13.28;57.99
72650;SHT31;61467;50.674;4.618;2023-04-08T11:21:57;13.64;58.19
72650;SHT31;61467;50.674;4.618;2023-04-08T11:24:25;13.65;58.30
72650;SHT31;61467;50.674;4.618;2023-04-08T11:26:53;13.34;57.95
72650;SHT31;61467;50.674;4.618;2023-04-08T11:29:20;13.41;58.53
72650;SHT31;61467;50.674;4.618;2023-04-08T11:31:48;13.35;58.32
72650;SHT31;61467;50.674;4.618;2023-04-08T11:34:21;13.31;58.04
72650;SHT31;61467;50.674;4.618;2023-04-08T11:36:48;13.35;58.02
72650;SHT31;61467;50.674;4.618;2023-04-08T11:39:15;13.47;57.27
72650;SHT31;61467;50.674;4.618;2023-04-08T11:41:42;13.47;57.17
72650;SHT31;61467;50.674;4.618;2023-04-08T11:44:08;13.35;57.11
72650;SHT31;61467;50.674;4.618;2023-04-08T11:46:35;13.42;57.54
72650;SHT31;61467;50.674;4.618;2023-04-08T11:49:05;13.06;58.66
72650;SHT31;61467;50.674;4.618;2023-04-08T11:51:33;13.23;58.02
72650;SHT31;61467;50.674;4.618;2023-04-08T11:54:03;13.14;58.54
72650;SHT31;61467;50.674;4.618;2023-04-08T11:56:30;13.23;58.65
72650;SHT31;61467;50.674;4.618;2023-04-08T11:58:58;13.25;58.88
72650;SHT31;61467;50.674;4.618;2023-04-08T12:01:25;13.33;57.30
72650;SHT31;61467;50.674;4.618;2023-04-08T12:03:56;13.40;57.22
72650;SHT31;61467;50.674;4.618;2023-04-08T12:06:25;13.48;57.67
72650;SHT31;61467;50.674;4.618;2023-04-08T12:08:53;13.47;57.58
72650;SHT31;61467;50.674;4.618;2023-04-08T12:11:20;13.47;57.60
72650;SHT31;61467;50.674;4.618;2023-04-08T12:13:47;13.42;57.13
72650;SHT31;61467;50.674;4.618;2023-04-08T12:16:15;13.48;57.17
72650;SHT31;61467;50.674;4.618;2023-04-08T12:18:42;13.51;56.87
72650;SHT31;61467;50.674;4.618;2023-04-08T12:21:09;13.45;57.49
72650;SHT31;61467;50.674;4.618;2023-04-08T12:23:37;13.25;56.68
72650;SHT31;61467;50.674;4.618;2023-04-08T12:26:04;13.40;56.63
72650;SHT31;61467;50.674;4.618;2023-04-08T12:28:31;13.58;57.33
72650;SHT31;61467;50.674;4.618;2023-04-08T12:30:59;13.47;57.04
72650;SHT31;61467;50.674;4.618;2023-04-08T12:33:26;13.51;57.13
72650;SHT31;61467;50.674;4.618;2023-04-08T12:35:52;13.64;57.53
72650;SHT31;61467;50.674;4.618;2023-04-08T12:38:19;13.62;57.13
72650;SHT31;61467;50.674;4.618;2023-04-08T12:40:47;13.47;57.44
72650;SHT31;61467;50.674;4.618;2023-04-08T12:43:14;13.44;56.86
72650;SHT31;61467;50.674;4.618;2023-04-08T12:45:42;13.54;56.70
72650;SHT31;61467;50.674;4.618;2023-04-08T12:48:09;13.51;56.61
72650;SHT31;61467;50.674;4.618;2023-04-08T12:50:36;13.54;56.82
72650;SHT31;61467;50.674;4.618;2023-04-08T12:53:03;13.59;58.25
72650;SHT31;61467;50.674;4.618;2023-04-08T12:55:32;13.48;59.68
72650;SHT31;61467;50.674;4.618;2023-04-08T12:58:01;13.25;58.20
72650;SHT31;61467;50.674;4.618;2023-04-08T13:00:28;13.38;59.50
72650;SHT31;61467;50.674;4.618;2023-04-08T13:02:54;13.47;58.68
72650;SHT31;61467;50.674;4.618;2023-04-08T13:05:21;13.23;58.29
72650;SHT31;61467;50.674;4.618;2023-04-08T13:07:48;12.89;58.92
72650;SHT31;61467;50.674;4.618;2023-04-08T13:10:15;13.17;58.20
72650;SHT31;61467;50.674;4.618;2023-04-08T13:12:42;13.17;59.36
72650;SHT31;61467;50.674;4.618;2023-04-08T13:15:13;13.51;59.66
72650;SHT31;61467;50.674;4.618;2023-04-08T13:17:40;13.82;58.24
72650;SHT31;61467;50.674;4.618;2023-04-08T13:20:09;14.13;57.76
72650;SHT31;61467;50.674;4.618;2023-04-08T13:22:36;14.59;57.21
72650;SHT31;61467;50.674;4.618;2023-04-08T13:25:06;14.88;55.47
72650;SHT31;61467;50.674;4.618;2023-04-08T13:27:33;15.25;54.14
72650;SHT31;61467;50.674;4.618;2023-04-08T13:30:00;15.36;54.57
72650;SHT31;61467;50.674;4.618;2023-04-08T13:32:29;15.69;54.09
72650;SHT31;61467;50.674;4.618;2023-04-08T13:34:55;15.76;52.77
72650;SHT31;61467;50.674;4.618;2023-04-08T13:37:22;15.90;51.60
72650;SHT31;61467;50.674;4.618;2023-04-08T13:39:49;16.29;52.17
72650;SHT31;61467;50.674;4.618;2023-04-08T13:42:16;16.51;51.27
72650;SHT31;61467;50.674;4.618;2023-04-08T13:44:43;16.72;49.48
72650;SHT31;61467;50.674;4.618;2023-04-08T13:47:09;16.49;50.32
72650;SHT31;61467;50.674;4.618;2023-04-08T13:49:38;16.58;50.03
72650;SHT31;61467;50.674;4.618;2023-04-08T13:52:05;16.20;49.10
72650;SHT31;61467;50.674;4.618;2023-04-08T13:54:32;16.05;49.33
72650;SHT31;61467;50.674;4.618;2023-04-08T13:56:59;15.97;51.55
72650;SHT31;61467;50.674;4.618;2023-04-08T13:59:26;15.87;50.70
72650;SHT31;61467;50.674;4.618;2023-04-08T14:01:53;15.91;51.04
72650;SHT31;61467;50.674;4.618;2023-04-08T14:04:20;16.01;50.82
72650;SHT31;61467;50.674;4.618;2023-04-08T14:06:49;16.12;51.65
72650;SHT31;61467;50.674;4.618;2023-04-08T14:09:17;16.25;51.07
72650;SHT31;61467;50.674;4.618;2023-04-08T14:11:45;16.12;51.68
72650;SHT31;61467;50.674;4.618;2023-04-08T14:14:12;15.67;52.25
72650;SHT31;61467;50.674;4.618;2023-04-08T14:16:39;15.76;53.30
72650;SHT31;61467;50.674;4.618;2023-04-08T14:19:06;15.79;52.57
72650;SHT31;61467;50.674;4.618;2023-04-08T14:21:33;15.83;53.11
72650;SHT31;61467;50.674;4.618;2023-04-08T14:24:04;15.53;53.08
72650;SHT31;61467;50.674;4.618;2023-04-08T14:26:31;15.25;53.23
72650;SHT31;61467;50.674;4.618;2023-04-08T14:29:01;15.16;54.02
72650;SHT31;61467;50.674;4.618;2023-04-08T14:31:29;14.98;54.39
72650;SHT31;61467;50.674;4.618;2023-04-08T14:33:56;14.95;54.81
72650;SHT31;61467;50.674;4.618;2023-04-08T14:36:23;15.04;54.34
72650;SHT31;61467;50.674;4.618;2023-04-08T14:38:50;14.80;53.98
72650;SHT31;61467;50.674;4.618;2023-04-08T14:41:19;15.08;53.89
72650;SHT31;61467;50.674;4.618;2023-04-08T14:43:46;14.94;54.12
72650;SHT31;61467;50.674;4.618;2023-04-08T14:46:13;15.08;54.56
72650;SHT31;61467;50.674;4.618;2023-04-08T14:48:40;15.35;53.87
72650;SHT31;61467;50.674;4.618;2023-04-08T14:51:07;15.52;53.87
72650;SHT31;61467;50.674;4.618;2023-04-08T14:53:34;15.53;53.65
72650;SHT31;61467;50.674;4.618;2023-04-08T14:56:01;15.52;53.22
72650;SHT31;61467;50.674;4.618;2023-04-08T14:58:29;15.54;52.56
72650;SHT31;61467;50.674;4.618;2023-04-08T15:00:56;15.47;52.77
72650;SHT31;61467;50.674;4.618;2023-04-08T15:03:23;15.33;53.42
72650;SHT31;61467;50.674;4.618;2023-04-08T15:05:50;15.38;54.04
72650;SHT31;61467;50.674;4.618;2023-04-08T15:08:17;15.06;53.77
72650;SHT31;61467;50.674;4.618;2023-04-08T15:10:46;15.12;53.87
72650;SHT31;61467;50.674;4.618;2023-04-08T15:13:12;15.06;53.37
72650;SHT31;61467;50.674;4.618;2023-04-08T15:15:41;15.05;53.81
72650;SHT31;61467;50.674;4.618;2023-04-08T15:18:07;15.16;54.08
72650;SHT31;61467;50.674;4.618;2023-04-08T15:20:34;15.23;54.40
72650;SHT31;61467;50.674;4.618;2023-04-08T15:23:01;15.29;53.55
72650;SHT31;61467;50.674;4.618;2023-04-08T15:25:28;15.19;54.31
72650;SHT31;61467;50.674;4.618;2023-04-08T15:27:55;15.19;53.70
72650;SHT31;61467;50.674;4.618;2023-04-08T15:30:22;15.12;54.00
72650;SHT31;61467;50.674;4.618;2023-04-08T15:32:51;15.01;54.44
72650;SHT31;61467;50.674;4.618;2023-04-08T15:35:18;14.99;54.90
72650;SHT31;61467;50.674;4.618;2023-04-08T15:37:46;15.11;53.47
72650;SHT31;61467;50.674;4.618;2023-04-08T15:40:13;14.81;53.24
72650;SHT31;61467;50.674;4.618;2023-04-08T15:42:40;14.88;53.93
72650;SHT31;61467;50.674;4.618;2023-04-08T15:45:08;14.91;54.33